Terminal Aerodrome Forecast
Issued by NWS Charleston, SC

Home | Current Version | Previous Version | Text Only | Print | Product List | Glossary On
Versions: 1 2 3 4 5 6 7 8 9 10 11 12 13 14 15 16
906
FTUS42 KCHS 052110 AAA
TAFSAV
TAF AMD
KSAV 052110Z 0521/0618 06007KT 3SM -RA BR SCT003 OVC008
     FM060200 09008KT 3SM RA BR OVC003
     FM061200 19010KT 5SM -RA BR OVC005=

USA.gov is the U.S. government's official web portal to all federal, state and local government web resources and services.